KJCT/JCT METAR and TAF weather

Enter ICAO airport designator
Station Type Date Time Source
KJCT METAR 2019/02/16 06:51 UTC NOAA

KJCT 160651Z AUTO 02006KT 10SM CLR 13/07 A2986 RMK AO2 SLP081 T01330072


Station Type Date Time Source
KJCT Decoded METAR 2019/02/16 06:51 UTC NOAA

KIMBLE COUNTY AIRPORT, TX, United States (KJCT) 30-31N 099-46W 523M
Feb 16, 2019 - 01:51 AM EST / 2019.02.16 0651 UTC
Wind: from the NNE (020 degrees) at 7 MPH (6 KT):0
Visibility: 10 mile(s):0
Sky conditions: clear
Temperature: 55.9 F (13.3 C)
Dew Point: 45.0 F (7.2 C)
Relative Humidity: 66%
Pressure (altimeter): 29.86 in. Hg (1011 hPa)
ob: KJCT 160651Z AUTO 02006KT 10SM CLR 13/07 A2986 RMK AO2 SLP081 T01330072
cycle: 7

Station Type Date Time Source
KJCT TAF 2019/02/16 06:22 UTC NOAA

TAF KJCT 160520Z 1606/1706 03005KT P6SM BKN250
FM161200 07005KT P6SM SCT250
FM162000 18010KT P6SM SCT250


Example: see airport list